• Join FlightAware (Why Join?)
  • Login
  • US Flag 
06:00AM EDT


 

Airport Tracker/Info


-or-


 

Live Flight TrackerFlight Track Log ✈ N498QS ✈ 07-Apr-2013 ✈ KBQK - KPBI

Flight Track Log - Related Links

Times and Time Zones

All times are in EDT time to prevent confusion due to time zone crossing. See the N498QS flight status page for this flight to view local times or setup timezone preferences in your user account.

Time Position Orientation Groundspeed Altitude Reporting Facility
EDT Latitude Longitude Course Direction KTS MPH feet Rate Location/Type
06:07PM 31.2767 -81.3881 169° South 320 368 4,200  Level Jacksonville Center
06:08PM 30.7311 -81.3015 169° South  Level Estimated
06:08PM 31.2506 -81.3228 115° Southeast 220 253 6,700  Level Jacksonville Center
06:09PM 31.1817 -81.3117 172° South 207 238 10,200 2,700 Climbing Jacksonville Center
06:10PM 31.0875 -81.3011 175° South 288 331 12,100 2,100 Climbing Jacksonville Center
06:11PM 30.9872 -81.2908 175° South 329 379 14,400 2,520 Climbing Jacksonville Center
06:12PM 30.8806 -81.2806 175° South 369 425 17,200 2,880 Climbing Jacksonville Center
06:13PM 30.7822 -81.2700 175° South 369 425 20,200 2,820 Climbing Jacksonville Center
06:14PM 30.6883 -81.2572 173° South 362 417 22,900 2,280 Climbing Jacksonville Center
06:15PM 30.5878 -81.2347 169° South 357 411 24,800 1,620 Climbing Jacksonville Center
06:16PM 30.4808 -81.1981 164° South 378 435 26,200 1,260 Climbing Jacksonville Center
06:17PM 30.3592 -81.1642 166° South 416 479 27,400 1,500 Climbing Jacksonville Center
06:18PM 30.2375 -81.1278 166° South 438 504 29,300 2,040 Climbing Jacksonville Center
06:19PM 30.1158 -81.0892 165° South 453 521 31,500 840 Climbing Jacksonville Center
06:21PM 29.8653 -81.0156 166° South 477 549 32,000 120 Climbing Miami Center
06:22PM 29.7411 -80.9797 166° South 472 543 32,000  Level Miami Center
06:23PM 29.6131 -80.9417 166° South 472 543 32,000  Level Miami Center
06:24PM 29.4869 -80.9036 165° South 472 543 32,000  Level Miami Center
06:25PM 29.3606 -80.8703 167° South 467 537 32,000  Level Miami Center
06:26PM 29.2344 -80.8372 167° South 467 537 32,000  Level Miami Center
06:27PM 29.1061 -80.7969 165° South 467 537 32,000  Level Miami Center
06:28PM 28.9800 -80.7614 166° South 467 537 32,000  Level Miami Center
06:29PM 28.8414 -80.7211 166° South 467 537 32,000  Level Miami Center
06:30PM 28.7131 -80.6786 164° South 472 543 32,000  Level Miami Center
06:31PM 28.6064 -80.6114 151° Southeast 479 551 32,000 -1,080 Level Miami Center
06:32PM 28.4897 -80.5269 148° Southeast 492 566 29,900 -2,220 Descending Miami Center
06:33PM 28.3667 -80.4381 148° Southeast 486 559 27,600 -2,340 Descending Miami Center
06:34PM 28.2489 -80.3850 158° South 462 532 25,300 -2,100 Descending Miami Center
06:35PM 28.1350 -80.3553 167° South 434 499 23,400 -1,860 Descending Miami Center
06:36PM 28.0311 -80.3286 167° South 429 494 21,600 -1,800 Descending Miami Center
06:37PM 27.9214 -80.2972 166° South 416 479 19,800 -1,920 Descending Miami Center
06:38PM 27.8053 -80.2656 166° South 408 470 17,800 -1,800 Descending Miami Center
06:39PM 27.7014 -80.2389 167° South 392 451 16,300 -1,620 Descending Miami Center
06:40PM 27.5978 -80.2125 167° South 387 445 14,600 -1,680 Descending Miami Center
06:41PM 27.5106 -80.1889 166° South 369 425 13,000 -1,500 Descending Miami Center
06:42PM 27.4192 -80.1650 167° South 358 412 11,600 -1,500 Descending Miami Center
06:43PM 27.3300 -80.1414 167° South 316 364 10,100 -840 Descending Miami Center
06:44PM 27.2489 -80.1275 171° South 296 341 10,000  Descending Miami Center
06:45PM 27.1764 -80.0950 158° South 284 327 10,100 -420 Climbing Miami Center
06:46PM 27.1058 -80.0861 174° South 284 327 9,200 -1,140 Descending Miami Center
06:47PM 27.0283 -80.0933 185° South 275 316 7,900 -1,740 Descending Miami Center
06:48PM 26.9425 -80.0981 183° South 275 316 5,800 -1,920 Descending Miami Center
06:49PM 26.8672 -80.1097 188° South 275 316 4,100 -1,440 Descending Miami Center
06:50PM 26.8117 -80.1664 222° Southwest 270 311 3,000 -660 Descending Miami Center
06:51PM 26.7747 -80.2258 235° Southwest 263 303 2,800 -240 Descending Miami Center
06:53PM 26.7833 -80.3635 270° West  Level FlightAware Approximate
07:00PM 26.6832 -80.0956 110° East  Level Estimated
07:01PM 26.6832 -80.0956 110° East  Level Estimated
07:02PM 26.6832 -80.0956 110° East  Level Estimated
07:03PM 26.6832 -80.0956 110° East  Level Estimated
07:04PM 26.6832 -80.0956 110° East  Level Estimated